createdAt,value
2022-10-31T00:00:09.045Z,6.04
2022-10-31T00:03:16.812Z,5.92
2022-10-31T00:06:21.906Z,5.85
2022-10-31T00:09:26.632Z,5.77
2022-10-31T00:12:31.521Z,5.81
2022-10-31T00:15:38.058Z,5.79
2022-10-31T00:18:42.887Z,5.86
2022-10-31T00:21:47.597Z,5.89
2022-10-31T00:24:52.512Z,5.95
2022-10-31T00:27:57.765Z,6.01
2022-10-31T00:31:04.855Z,6.05
2022-10-31T00:34:11.257Z,6.08
2022-10-31T00:37:16.225Z,6.10
2022-10-31T00:40:22.755Z,6.12
2022-10-31T00:43:27.371Z,6.08
2022-10-31T00:46:33.462Z,5.97
2022-10-31T00:49:38.196Z,5.95
2022-10-31T00:52:43.001Z,5.92
2022-10-31T00:55:47.634Z,5.89
2022-10-31T00:58:52.352Z,6.01
2022-10-31T01:02:00.020Z,6.05
2022-10-31T01:05:05.544Z,6.10
2022-10-31T01:08:16.910Z,6.04
2022-10-31T01:11:24.249Z,6.14
2022-10-31T01:14:29.047Z,6.12
2022-10-31T01:17:37.232Z,6.18
2022-10-31T01:20:42.322Z,6.22
2022-10-31T01:23:47.216Z,6.19
2022-10-31T01:26:52.052Z,6.19
2022-10-31T01:29:57.036Z,6.18
2022-10-31T01:33:03.194Z,6.14
2022-10-31T01:36:20.542Z,6.13
2022-10-31T01:39:28.935Z,6.14
2022-10-31T01:42:33.673Z,6.16
2022-10-31T01:45:38.800Z,6.22
2022-10-31T01:48:44.869Z,6.23
2022-10-31T01:51:52.731Z,6.24
2022-10-31T01:55:02.050Z,6.27
2022-10-31T01:58:13.781Z,6.29
2022-10-31T02:01:19.447Z,6.26
2022-10-31T02:04:27.960Z,6.29
2022-10-31T02:07:39.130Z,6.31
2022-10-31T02:10:45.428Z,6.35
2022-10-31T02:13:50.577Z,6.33
2022-10-31T02:16:56.641Z,6.31
2022-10-31T02:20:14.575Z,6.30
2022-10-31T02:24:03.162Z,6.34
2022-10-31T02:27:34.306Z,6.33
2022-10-31T02:31:09.681Z,6.34
2022-10-31T02:34:21.770Z,6.40
2022-10-31T02:37:32.135Z,6.38
2022-10-31T02:40:40.598Z,6.43
2022-10-31T02:44:15.129Z,6.47
2022-10-31T02:47:23.733Z,6.51
2022-10-31T02:50:33.259Z,6.49
2022-10-31T02:53:40.622Z,6.57
2022-10-31T02:56:47.685Z,6.61
2022-10-31T02:59:58.346Z,6.62
2022-10-31T03:03:06.049Z,6.63
2022-10-31T03:06:16.833Z,6.64
2022-10-31T03:09:27.208Z,6.67
2022-10-31T03:12:43.248Z,6.73
2022-10-31T03:15:56.027Z,6.72
2022-10-31T03:19:03.357Z,6.71
2022-10-31T03:22:15.192Z,6.81
2022-10-31T03:25:21.353Z,6.81
2022-10-31T03:28:32.051Z,6.81
2022-10-31T03:31:40.181Z,6.91
2022-10-31T03:34:47.141Z,6.94
2022-10-31T03:37:56.749Z,6.98
2022-10-31T03:41:03.338Z,7.02
2022-10-31T03:44:14.428Z,7.06
2022-10-31T03:47:19.847Z,7.08
2022-10-31T03:50:31.323Z,7.16
2022-10-31T03:53:42.721Z,7.22
2022-10-31T03:56:54.445Z,7.29
2022-10-31T04:00:06.983Z,7.35
2022-10-31T04:03:27.368Z,7.44
2022-10-31T04:06:34.843Z,7.53
2022-10-31T04:09:45.075Z,7.65
2022-10-31T04:12:54.721Z,7.78
2022-10-31T04:16:03.133Z,7.88
2022-10-31T04:19:08.264Z,7.95
2022-10-31T04:22:14.000Z,8.01
2022-10-31T04:25:20.086Z,8.07
2022-10-31T04:28:25.165Z,8.11
2022-10-31T04:31:30.492Z,8.13
2022-10-31T04:34:35.428Z,8.18
2022-10-31T04:37:40.448Z,8.26
2022-10-31T04:40:47.594Z,8.29
2022-10-31T04:44:27.392Z,8.33
2022-10-31T04:47:38.029Z,8.41
2022-10-31T04:50:44.292Z,8.45
2022-10-31T04:53:49.320Z,8.49
2022-10-31T04:57:15.577Z,8.57
2022-10-31T05:00:23.617Z,8.56
2022-10-31T05:03:29.124Z,8.60
2022-10-31T05:06:34.008Z,8.61
2022-10-31T05:09:38.909Z,8.66
2022-10-31T05:12:50.032Z,8.60
2022-10-31T05:16:07.205Z,8.68
2022-10-31T05:19:30.895Z,8.70
2022-10-31T05:23:00.279Z,8.70
2022-10-31T05:26:06.350Z,8.70
2022-10-31T05:29:13.943Z,8.73
2022-10-31T05:32:18.845Z,8.76
2022-10-31T05:35:58.518Z,8.75
2022-10-31T05:39:12.748Z,8.72
2022-10-31T05:42:24.892Z,8.76
2022-10-31T05:45:31.738Z,8.78
2022-10-31T05:48:40.553Z,8.77
2022-10-31T05:52:03.741Z,8.82
2022-10-31T05:55:16.992Z,8.81
2022-10-31T05:58:36.479Z,8.85
2022-10-31T06:01:45.357Z,8.85
2022-10-31T06:05:25.831Z,8.91
2022-10-31T06:08:31.216Z,8.91
2022-10-31T06:11:40.016Z,8.93
2022-10-31T06:14:44.635Z,9.00
2022-10-31T06:18:01.449Z,8.99
2022-10-31T06:21:08.615Z,9.04
2022-10-31T06:24:15.901Z,9.09
2022-10-31T06:27:40.814Z,9.09
2022-10-31T06:30:51.594Z,9.14
2022-10-31T06:33:58.832Z,9.17
2022-10-31T06:37:03.872Z,9.19
2022-10-31T06:40:10.921Z,9.21
2022-10-31T06:43:35.826Z,9.26
2022-10-31T06:46:57.143Z,9.27
2022-10-31T06:50:18.574Z,9.35
2022-10-31T06:53:25.354Z,9.39
2022-10-31T06:56:31.389Z,9.41
2022-10-31T06:59:37.388Z,9.47
2022-10-31T07:02:57.469Z,9.47
2022-10-31T07:06:03.660Z,9.47
2022-10-31T07:09:10.488Z,9.53
2022-10-31T07:12:15.294Z,9.60
2022-10-31T07:15:27.314Z,9.62
2022-10-31T07:18:32.809Z,9.66
2022-10-31T07:21:39.158Z,9.67
2022-10-31T07:24:45.047Z,9.72
2022-10-31T07:28:22.092Z,9.72
2022-10-31T07:31:29.955Z,9.74
2022-10-31T07:34:44.909Z,9.77
2022-10-31T07:37:57.061Z,9.81
2022-10-31T07:41:02.024Z,9.88
2022-10-31T07:44:09.953Z,9.86
2022-10-31T07:47:44.828Z,9.93
2022-10-31T07:51:08.371Z,9.98
2022-10-31T07:54:33.242Z,10.00
2022-10-31T07:57:38.932Z,10.05
2022-10-31T08:00:46.909Z,10.07
2022-10-31T08:03:55.556Z,10.08
2022-10-31T08:07:23.272Z,10.19
2022-10-31T08:10:39.862Z,10.25
2022-10-31T08:13:46.304Z,10.25
2022-10-31T08:16:54.136Z,10.27
2022-10-31T08:19:59.147Z,10.27
2022-10-31T08:23:14.655Z,10.34
2022-10-31T08:26:22.504Z,10.40
2022-10-31T08:29:29.172Z,10.42
2022-10-31T08:32:34.817Z,10.42
2022-10-31T08:36:02.250Z,10.47
2022-10-31T08:39:39.713Z,10.52
2022-10-31T08:42:47.324Z,10.53
2022-10-31T08:45:52.344Z,10.56
2022-10-31T08:49:05.232Z,10.55
2022-10-31T08:52:14.476Z,10.59
2022-10-31T08:55:20.999Z,10.59
2022-10-31T08:58:45.712Z,10.66
2022-10-31T09:01:51.033Z,10.68
2022-10-31T09:04:56.710Z,10.73
2022-10-31T09:08:04.688Z,10.77
2022-10-31T09:11:10.673Z,10.77
2022-10-31T09:14:35.201Z,10.85
2022-10-31T09:17:59.194Z,10.88
2022-10-31T09:21:10.864Z,10.91
2022-10-31T09:24:15.761Z,10.93
2022-10-31T09:27:20.992Z,10.99
2022-10-31T09:30:29.363Z,10.95
2022-10-31T09:33:34.058Z,11.02
2022-10-31T09:36:58.766Z,11.03
2022-10-31T09:40:03.494Z,11.08
2022-10-31T09:43:23.637Z,11.14
2022-10-31T09:46:37.215Z,11.15
2022-10-31T09:50:04.577Z,11.16
2022-10-31T09:53:18.334Z,11.25
2022-10-31T09:56:25.155Z,11.33
2022-10-31T09:59:38.436Z,11.30
2022-10-31T10:02:49.060Z,11.42
2022-10-31T10:05:59.796Z,11.49
2022-10-31T10:09:18.806Z,11.55
2022-10-31T10:13:29.736Z,11.62
2022-10-31T10:16:46.810Z,11.64
2022-10-31T10:20:22.830Z,11.67
2022-10-31T10:23:40.637Z,11.66
2022-10-31T10:26:52.964Z,11.71
2022-10-31T10:30:05.020Z,11.72
2022-10-31T10:33:14.773Z,11.72
2022-10-31T10:36:28.153Z,11.74
2022-10-31T10:39:39.234Z,11.72
2022-10-31T10:43:03.365Z,11.72
2022-10-31T10:46:43.382Z,11.70
2022-10-31T10:49:52.924Z,11.72
2022-10-31T10:53:09.152Z,11.75
2022-10-31T10:56:19.239Z,11.77
2022-10-31T10:59:24.850Z,11.77
2022-10-31T11:02:34.099Z,11.84
2022-10-31T11:05:43.612Z,11.89
2022-10-31T11:08:50.842Z,11.92
2022-10-31T11:11:56.545Z,11.95
2022-10-31T11:15:08.412Z,12.01
2022-10-31T11:21:35.785Z,12.12
2022-10-31T11:24:43.601Z,12.16
2022-10-31T11:27:48.994Z,12.20
2022-10-31T11:30:56.997Z,12.25
2022-10-31T11:34:03.892Z,12.29
2022-10-31T11:37:17.193Z,12.31
2022-10-31T11:40:25.520Z,12.36
2022-10-31T11:43:30.806Z,12.42
2022-10-31T11:46:38.074Z,12.48
2022-10-31T11:49:44.976Z,12.46
2022-10-31T11:52:49.946Z,12.50
2022-10-31T11:56:11.528Z,12.55
2022-10-31T11:59:30.162Z,12.53
2022-10-31T12:02:34.867Z,12.59
2022-10-31T12:05:40.035Z,12.64
2022-10-31T12:08:44.893Z,12.65
2022-10-31T12:12:07.815Z,12.74
2022-10-31T12:15:39.233Z,12.72
2022-10-31T12:18:59.611Z,12.76
2022-10-31T12:22:15.653Z,12.78
2022-10-31T12:25:38.075Z,12.81
2022-10-31T12:29:09.943Z,12.85
2022-10-31T12:32:30.402Z,12.89
2022-10-31T12:35:47.399Z,12.91
2022-10-31T12:39:26.805Z,12.98
2022-10-31T12:42:47.532Z,13.02
2022-10-31T12:45:58.541Z,13.03
2022-10-31T12:49:30.421Z,13.07
2022-10-31T12:52:48.829Z,13.08
2022-10-31T12:56:05.902Z,13.14
2022-10-31T12:59:23.896Z,13.16
2022-10-31T13:02:33.412Z,13.17
2022-10-31T13:05:41.424Z,13.20
2022-10-31T13:08:50.473Z,13.19
2022-10-31T13:12:00.995Z,13.19
2022-10-31T13:15:15.246Z,13.19
2022-10-31T13:18:31.795Z,13.23
2022-10-31T13:21:40.556Z,13.22
2022-10-31T13:25:00.019Z,13.21
2022-10-31T13:28:26.381Z,13.19
2022-10-31T13:31:31.256Z,13.18
2022-10-31T13:34:40.989Z,13.19
2022-10-31T13:37:54.718Z,13.22
2022-10-31T13:41:03.100Z,13.23
2022-10-31T13:44:15.684Z,13.27
2022-10-31T13:47:27.268Z,13.27
2022-10-31T13:50:34.751Z,13.28
2022-10-31T13:53:44.201Z,13.30
2022-10-31T13:56:51.472Z,13.26
2022-10-31T13:59:59.093Z,13.27
2022-10-31T14:03:03.999Z,13.23
2022-10-31T14:06:11.590Z,13.26
2022-10-31T14:09:35.255Z,13.28
2022-10-31T14:12:42.715Z,13.22
2022-10-31T14:15:57.220Z,13.29
2022-10-31T14:19:04.045Z,13.28
2022-10-31T14:22:23.091Z,13.27
2022-10-31T14:25:31.370Z,13.29
2022-10-31T14:28:38.021Z,13.23
2022-10-31T14:31:45.960Z,13.28
2022-10-31T14:34:57.850Z,13.24
2022-10-31T14:38:27.495Z,13.22
2022-10-31T14:41:47.553Z,13.16
2022-10-31T14:45:11.363Z,13.18
2022-10-31T14:49:00.448Z,13.24
2022-10-31T14:52:09.740Z,13.13
2022-10-31T14:55:16.674Z,13.14
2022-10-31T14:58:24.815Z,13.11
2022-10-31T15:01:32.206Z,13.04
2022-10-31T15:04:37.898Z,12.95
2022-10-31T15:07:53.358Z,12.91
2022-10-31T15:10:59.362Z,12.86
2022-10-31T15:14:04.022Z,12.79
2022-10-31T15:17:11.445Z,12.76
2022-10-31T15:20:21.693Z,12.69
2022-10-31T15:23:28.124Z,12.71
2022-10-31T15:26:37.633Z,12.68
2022-10-31T15:29:51.643Z,12.58
2022-10-31T15:32:59.221Z,12.45
2022-10-31T15:36:05.309Z,12.47
2022-10-31T15:39:13.352Z,12.42
2022-10-31T15:42:25.930Z,12.35
2022-10-31T15:45:32.250Z,12.31
2022-10-31T15:48:37.953Z,12.30
2022-10-31T15:51:42.777Z,12.22
2022-10-31T15:54:51.094Z,12.21
2022-10-31T15:58:00.131Z,12.18
2022-10-31T16:01:08.161Z,12.17
2022-10-31T16:04:24.842Z,12.09
2022-10-31T16:07:30.955Z,12.07
2022-10-31T16:10:37.200Z,12.04
2022-10-31T16:13:57.083Z,11.96
2022-10-31T16:17:01.925Z,11.93
2022-10-31T16:20:09.123Z,12.08
2022-10-31T16:23:18.804Z,12.06
2022-10-31T16:26:23.457Z,12.11
2022-10-31T16:29:34.774Z,12.16
2022-10-31T16:32:55.904Z,12.13
2022-10-31T16:36:30.133Z,12.16
2022-10-31T16:39:28.176Z,12.14
2022-10-31T16:42:32.925Z,12.21
2022-10-31T16:45:40.093Z,12.23
2022-10-31T16:48:45.113Z,12.16
2022-10-31T16:51:49.935Z,12.05
2022-10-31T16:54:55.204Z,12.10
2022-10-31T16:58:00.459Z,12.11
2022-10-31T17:01:08.549Z,12.07
2022-10-31T17:04:16.396Z,12.05
2022-10-31T17:07:21.173Z,12.07
2022-10-31T17:10:26.655Z,12.12
2022-10-31T17:13:33.116Z,12.04
2022-10-31T17:16:39.736Z,12.01
2022-10-31T17:19:44.376Z,12.00
2022-10-31T17:22:49.268Z,11.97
2022-10-31T17:25:54.092Z,11.98
2022-10-31T17:29:00.093Z,12.01
2022-10-31T17:32:06.905Z,11.93
2022-10-31T17:35:13.921Z,11.97
2022-10-31T17:38:19.474Z,12.08
2022-10-31T17:41:24.089Z,12.03
2022-10-31T17:44:29.014Z,12.04
2022-10-31T17:47:35.329Z,12.06
2022-10-31T17:50:40.660Z,12.03
2022-10-31T17:53:45.304Z,12.08
2022-10-31T17:56:50.272Z,12.05
2022-10-31T17:59:55.028Z,12.07
2022-10-31T18:03:04.386Z,12.08
2022-10-31T18:06:10.920Z,12.02
2022-10-31T18:09:16.089Z,12.02
2022-10-31T18:12:20.859Z,12.12
2022-10-31T18:15:25.901Z,12.16
2022-10-31T18:18:31.914Z,12.17
2022-10-31T18:21:36.597Z,12.21
2022-10-31T18:24:41.774Z,12.27
2022-10-31T18:27:46.863Z,12.19
2022-10-31T18:30:51.509Z,12.18
2022-10-31T18:33:58.717Z,12.10
2022-10-31T18:37:03.457Z,12.12
2022-10-31T18:40:10.649Z,12.08
2022-10-31T18:43:17.300Z,12.03
2022-10-31T18:46:22.369Z,12.07
2022-10-31T18:49:32.720Z,12.05
2022-10-31T18:52:37.857Z,12.03
2022-10-31T18:55:47.250Z,12.00
2022-10-31T18:58:53.813Z,11.95
2022-10-31T19:01:58.619Z,11.93
2022-10-31T19:05:05.618Z,11.92
2022-10-31T19:08:12.215Z,11.84
2022-10-31T19:11:17.346Z,11.87
2022-10-31T19:14:22.089Z,11.82
2022-10-31T19:17:27.021Z,11.82
2022-10-31T19:20:34.194Z,11.72
2022-10-31T19:23:39.308Z,11.69
2022-10-31T19:26:44.172Z,11.72
2022-10-31T19:29:49.202Z,11.62
2022-10-31T19:32:55.911Z,11.60
2022-10-31T19:36:02.796Z,11.59
2022-10-31T19:39:08.344Z,11.62
2022-10-31T19:42:13.378Z,11.62
2022-10-31T19:45:18.250Z,11.70
2022-10-31T19:48:22.921Z,11.65
2022-10-31T19:51:29.440Z,11.57
2022-10-31T19:54:34.463Z,11.52
2022-10-31T19:58:11.104Z,11.44
2022-10-31T20:01:09.659Z,11.39
2022-10-31T20:04:14.422Z,11.38
2022-10-31T20:07:20.665Z,11.40
2022-10-31T20:10:25.601Z,11.39
2022-10-31T20:13:31.926Z,11.32
2022-10-31T20:16:36.923Z,11.24
2022-10-31T20:19:41.796Z,11.25
2022-10-31T20:22:49.806Z,11.27
2022-10-31T20:25:54.432Z,11.26
2022-10-31T20:29:02.283Z,11.22
2022-10-31T20:32:07.772Z,11.19
2022-10-31T20:35:13.164Z,11.18
2022-10-31T20:38:19.256Z,11.13
2022-10-31T20:41:24.069Z,11.07
2022-10-31T20:44:29.062Z,11.00
2022-10-31T20:47:33.665Z,11.03
2022-10-31T20:50:40.264Z,11.04
2022-10-31T20:53:46.464Z,11.00
2022-10-31T20:56:51.206Z,10.93
2022-10-31T20:59:55.880Z,10.87
2022-10-31T21:03:00.937Z,10.88
2022-10-31T21:06:07.133Z,10.82
2022-10-31T21:09:13.669Z,10.83
2022-10-31T21:12:18.401Z,10.82
2022-10-31T21:15:23.152Z,10.80
2022-10-31T21:18:28.561Z,10.79
2022-10-31T21:21:36.241Z,10.75
2022-10-31T21:24:42.516Z,10.76
2022-10-31T21:27:47.251Z,10.67
2022-10-31T21:30:52.936Z,10.58
2022-10-31T21:33:59.084Z,10.63
2022-10-31T21:37:03.730Z,10.60
2022-10-31T21:40:11.597Z,10.55
2022-10-31T21:43:17.565Z,10.56
2022-10-31T21:46:24.084Z,10.51
2022-10-31T21:49:28.945Z,10.50
2022-10-31T21:52:33.620Z,10.48
2022-10-31T21:55:40.050Z,10.47
2022-10-31T21:58:45.007Z,10.42
2022-10-31T22:01:50.005Z,10.37
2022-10-31T22:04:54.724Z,10.38
2022-10-31T22:07:59.783Z,10.33
2022-10-31T22:11:08.503Z,10.28
2022-10-31T22:14:14.496Z,10.26
2022-10-31T22:17:19.967Z,10.22
2022-10-31T22:20:26.195Z,10.22
2022-10-31T22:23:31.342Z,10.22
2022-10-31T22:26:38.123Z,10.21
2022-10-31T22:29:42.783Z,10.15
2022-10-31T22:32:47.525Z,10.14
2022-10-31T22:35:52.329Z,10.09
2022-10-31T22:38:57.127Z,10.08
2022-10-31T22:42:03.111Z,10.05
2022-10-31T22:45:10.339Z,10.05
2022-10-31T22:48:15.924Z,10.02
2022-10-31T22:51:23.307Z,9.99
2022-10-31T22:54:28.283Z,10.04
2022-10-31T22:57:35.516Z,10.00
2022-10-31T23:00:40.661Z,9.95
2022-10-31T23:03:45.795Z,9.95
2022-10-31T23:06:50.505Z,10.00
2022-10-31T23:09:56.589Z,9.99
2022-10-31T23:13:20.401Z,9.95
2022-10-31T23:16:25.095Z,9.88
2022-10-31T23:19:31.689Z,9.92
2022-10-31T23:22:36.342Z,9.87
2022-10-31T23:25:58.539Z,9.87
2022-10-31T23:29:04.496Z,9.86
2022-10-31T23:32:18.578Z,9.83
2022-10-31T23:35:23.372Z,9.83
2022-10-31T23:38:28.320Z,9.79
2022-10-31T23:41:33.685Z,9.78
2022-10-31T23:44:39.666Z,9.79
2022-10-31T23:47:44.482Z,9.79
2022-10-31T23:50:49.726Z,9.81
2022-10-31T23:53:54.333Z,9.76
2022-10-31T23:56:59.200Z,9.72
